Time;durP1;ratioP1;P1;durP2;ratioP2;P2;SDS_P1;SDS_P2;PMS_P1;PMS_P2;Temp;Humidity;BMP_temperature;BMP_pressure;BME280_temperature;BME280_humidity;BME280_pressure;Samples;Min_cycle;Max_cycle;Signal;HPM_P1;HPM_P2
2022/09/06 00:01:48;;;;;;;9.15;6.18;;;;;;;;;;5053462;28;20060;-42
2022/09/06 00:04:14;;;;;;;8.45;7.22;;;;;;;;;;5054611;28;20071;-42
2022/09/06 00:06:39;;;;;;;12.43;6.72;;;;;;;;;;5054674;28;20028;-41
2022/09/06 00:09:05;;;;;;;9.60;7.82;;;;;;;;;;5054930;28;20040;-42
2022/09/06 00:11:30;;;;;;;11.23;7.63;;;;;;;;;;5053832;28;20027;-41
2022/09/06 00:13:56;;;;;;;8.02;7.22;;;;;;;;;;5054810;28;20357;-42
2022/09/06 00:16:23;;;;;;;9.38;7.32;;;;;;;;;;5054557;28;20108;-41
2022/09/06 00:18:53;;;;;;;9.73;7.20;;;;;;;;;;5054580;28;20112;-42
2022/09/06 00:21:23;;;;;;;;;;;;;;;;;;5054853;28;20060;-43
2022/09/06 00:23:48;;;;;;;10.63;7.32;;;;;;;;;;5054388;28;20387;-42
2022/09/06 00:26:14;;;;;;;10.02;7.32;;;;;;;;;;5054565;28;20025;-42
2022/09/06 00:28:40;;;;;;;12.77;7.70;;;;;;;;;;5054337;28;20143;-42
2022/09/06 00:31:18;;;;;;;8.95;8.05;;;;;;;;;;5054510;28;20025;-43
2022/09/06 00:33:44;;;;;;;9.40;7.07;;;;;;;;;;5054170;28;20067;-43
2022/09/06 00:36:11;;;;;;;9.82;7.20;;;;;;;;;;5054272;28;20029;-42
2022/09/06 00:38:37;;;;;;;11.07;7.28;;;;;;;;;;5054254;28;20415;-44
2022/09/06 00:41:04;;;;;;;10.45;7.43;;;;;;;;;;5054419;28;20039;-43
2022/09/06 00:43:30;;;;;;;8.40;6.55;;;;;;;;;;5054326;28;20509;-44
2022/09/06 00:45:56;;;;;;;7.47;6.35;;;;;;;;;;5053905;28;20036;-42
2022/09/06 00:48:22;;;;;;;7.30;5.90;;;;;;;;;;5053881;28;20108;-42
2022/09/06 00:50:51;;;;;;;6.07;5.32;;;;;;;;;;5054143;28;20044;-42
2022/09/06 00:53:17;;;;;;;7.15;6.03;;;;;;;;;;5053941;28;20058;-42
2022/09/06 00:55:43;;;;;;;7.68;5.30;;;;;;;;;;5053623;28;20102;-42
2022/09/06 00:58:09;;;;;;;6.75;5.10;;;;;;;;;;5053641;28;20100;-42
2022/09/06 01:00:34;;;;;;;12.68;7.10;;;;;;;;;;5053957;28;20031;-44
2022/09/06 01:03:00;;;;;;;7.22;6.28;;;;;;;;;;5053572;28;20029;-42
2022/09/06 01:05:38;;;;;;;8.18;6.25;;;;;;;;;;5053466;28;20055;-42
2022/09/06 01:08:12;;;;;;;12.27;7.03;;;;;;;;;;5053548;28;20539;-42
2022/09/06 01:10:40;;;;;;;10.75;6.50;;;;;;;;;;5053371;28;20032;-43
2022/09/06 01:13:36;;;;;;;18.90;6.50;;;;;;;;;;5053388;28;20066;-44
2022/09/06 01:16:22;;;;;;;12.25;6.10;;;;;;;;;;5053811;28;20384;-44
2022/09/06 01:19:15;;;;;;;40.78;7.32;;;;;;;;;;5053261;28;20096;-42
2022/09/06 01:22:12;;;;;;;11.70;6.60;;;;;;;;;;5053315;28;20025;-42
2022/09/06 01:25:11;;;;;;;8.20;6.32;;;;;;;;;;5044498;28;20047;-42
2022/09/06 01:27:58;;;;;;;9.70;5.80;;;;;;;;;;5053169;28;20028;-41
2022/09/06 01:30:24;;;;;;;7.60;6.90;;;;;;;;;;5053155;28;20033;-41
2022/09/06 01:32:52;;;;;;;11.93;7.10;;;;;;;;;;5053053;28;20102;-42
2022/09/06 01:35:36;;;;;;;13.65;7.32;;;;;;;;;;5053263;28;20033;-42
2022/09/06 01:38:02;;;;;;;13.18;7.30;;;;;;;;;;5052945;28;20052;-42
2022/09/06 01:40:28;;;;;;;16.45;7.50;;;;;;;;;;5052935;28;20024;-42
2022/09/06 01:42:56;;;;;;;12.27;7.82;;;;;;;;;;5053156;28;20025;-42
2022/09/06 01:45:47;;;;;;;10.10;8.45;;;;;;;;;;5052742;28;20033;-43
2022/09/06 01:48:51;;;;;;;10.13;8.15;;;;;;;;;;5052825;28;20058;-42
2022/09/06 01:51:27;;;;;;;13.93;7.53;;;;;;;;;;5052911;28;20028;-42
2022/09/06 01:54:04;;;;;;;7.55;6.70;;;;;;;;;;5052802;28;20032;-42
2022/09/06 01:56:48;;;;;;;10.10;6.70;;;;;;;;;;5052534;28;20059;-41
2022/09/06 01:59:35;;;;;;;8.25;7.30;;;;;;;;;;5052638;28;20020;-41
2022/09/06 02:02:18;;;;;;;10.50;7.40;;;;;;;;;;5052829;28;20029;-41
2022/09/06 02:05:17;;;;;;;9.00;7.43;;;;;;;;;;5052750;28;20035;-43
2022/09/06 02:07:45;;;;;;;12.02;7.80;;;;;;;;;;5052830;28;20075;-42
2022/09/06 02:10:21;;;;;;;12.95;8.43;;;;;;;;;;5052734;28;20044;-42
2022/09/06 02:12:51;;;;;;;13.18;8.10;;;;;;;;;;5052455;28;20083;-42
2022/09/06 02:15:38;;;;;;;8.70;7.88;;;;;;;;;;5052845;28;20480;-42
2022/09/06 02:18:14;;;;;;;8.88;7.97;;;;;;;;;;5052252;28;20029;-42
2022/09/06 02:20:43;;;;;;;8.23;7.13;;;;;;;;;;5052666;28;20078;-42
2022/09/06 02:23:10;;;;;;;10.57;8.00;;;;;;;;;;5052363;28;20024;-42
2022/09/06 02:25:38;;;;;;;8.50;7.63;;;;;;;;;;5052108;28;20037;-42
2022/09/06 02:28:06;;;;;;;9.82;7.28;;;;;;;;;;5052536;28;20025;-42
2022/09/06 02:30:38;;;;;;;9.18;7.30;;;;;;;;;;5052439;28;20137;-43
2022/09/06 02:33:09;;;;;;;9.77;7.35;;;;;;;;;;5052580;28;20029;-42
2022/09/06 02:35:47;;;;;;;10.02;7.80;;;;;;;;;;5055684;28;20029;-42
2022/09/06 02:38:13;;;;;;;11.02;7.80;;;;;;;;;;5056637;28;20120;-42
2022/09/06 02:40:39;;;;;;;8.73;7.90;;;;;;;;;;5056200;28;20032;-43
2022/09/06 02:43:05;;;;;;;9.80;8.13;;;;;;;;;;5056278;28;20033;-43
2022/09/06 02:45:31;;;;;;;8.68;7.80;;;;;;;;;;5056407;28;20037;-43
2022/09/06 02:47:56;;;;;;;10.95;8.18;;;;;;;;;;5056389;28;20048;-42
2022/09/06 02:50:22;;;;;;;12.27;8.15;;;;;;;;;;5056082;28;20484;-42
2022/09/06 02:53:07;;;;;;;11.70;8.45;;;;;;;;;;5056067;28;20037;-42
2022/09/06 02:55:33;;;;;;;11.43;8.13;;;;;;;;;;5055839;28;20059;-42
2022/09/06 02:57:58;;;;;;;11.55;8.38;;;;;;;;;;5056026;28;20025;-42
2022/09/06 03:00:26;;;;;;;9.05;7.97;;;;;;;;;;5056171;28;20484;-42
2022/09/06 03:02:55;;;;;;;10.00;7.13;;;;;;;;;;5056250;28;20060;-42
2022/09/06 03:05:26;;;;;;;8.95;6.97;;;;;;;;;;5055769;28;20427;-41
2022/09/06 03:07:53;;;;;;;8.68;7.53;;;;;;;;;;5056028;28;20032;-41
2022/09/06 03:10:19;;;;;;;8.80;7.80;;;;;;;;;;5055712;28;20028;-41
2022/09/06 03:12:45;;;;;;;9.75;8.30;;;;;;;;;;5055684;28;20039;-41
2022/09/06 03:15:12;;;;;;;9.02;8.13;;;;;;;;;;5055627;28;20025;-41
2022/09/06 03:17:38;;;;;;;9.05;8.05;;;;;;;;;;5055632;28;20021;-41
2022/09/06 03:20:05;;;;;;;15.57;8.23;;;;;;;;;;5055486;28;20037;-41
2022/09/06 03:22:30;;;;;;;9.23;7.88;;;;;;;;;;5055810;28;20021;-41
2022/09/06 03:24:56;;;;;;;9.00;8.07;;;;;;;;;;5055583;28;20456;-41
2022/09/06 03:27:22;;;;;;;11.02;7.78;;;;;;;;;;5055493;28;20025;-42
2022/09/06 03:29:47;;;;;;;8.82;7.80;;;;;;;;;;5055459;28;20100;-42
2022/09/06 03:32:13;;;;;;;8.55;7.75;;;;;;;;;;5055325;28;20108;-43
2022/09/06 03:34:38;;;;;;;9.77;7.85;;;;;;;;;;5055638;28;20033;-43
2022/09/06 03:37:04;;;;;;;9.15;8.25;;;;;;;;;;5055592;28;20028;-41
2022/09/06 03:39:29;;;;;;;12.10;8.13;;;;;;;;;;5055417;28;20115;-41
2022/09/06 03:41:55;;;;;;;10.57;9.23;;;;;;;;;;5055145;28;20507;-41
2022/09/06 03:44:20;;;;;;;10.60;8.25;;;;;;;;;;5055280;28;20112;-41
2022/09/06 03:46:46;;;;;;;8.77;7.88;;;;;;;;;;5055287;28;20456;-41
2022/09/06 03:49:11;;;;;;;9.05;7.60;;;;;;;;;;5054140;28;20369;-41
2022/09/06 03:51:37;;;;;;;8.90;6.97;;;;;;;;;;5055240;28;20395;-41
2022/09/06 03:54:02;;;;;;;9.95;6.75;;;;;;;;;;5054955;28;20485;-42
2022/09/06 03:56:28;;;;;;;6.88;6.18;;;;;;;;;;5054662;28;20396;-42
2022/09/06 03:58:54;;;;;;;11.40;7.40;;;;;;;;;;5054772;28;20029;-41
2022/09/06 04:01:19;;;;;;;10.27;7.57;;;;;;;;;;5054871;28;20104;-42
2022/09/06 04:03:45;;;;;;;9.75;7.82;;;;;;;;;;5054710;28;20063;-42
2022/09/06 04:06:10;;;;;;;8.75;7.65;;;;;;;;;;5054619;28;20036;-42
2022/09/06 04:08:37;;;;;;;11.32;8.52;;;;;;;;;;5054695;28;20025;-43
2022/09/06 04:11:03;;;;;;;12.70;8.00;;;;;;;;;;5054547;28;20050;-43
2022/09/06 04:13:30;;;;;;;11.63;8.80;;;;;;;;;;5054793;28;20025;-42
2022/09/06 04:15:55;;;;;;;13.10;8.73;;;;;;;;;;5054525;28;20036;-44
2022/09/06 04:18:21;;;;;;;10.98;8.48;;;;;;;;;;5054776;28;20021;-43
2022/09/06 04:20:48;;;;;;;13.07;8.73;;;;;;;;;;5054408;28;20387;-42
2022/09/06 04:23:14;;;;;;;10.00;8.20;;;;;;;;;;5053220;28;20428;-41
2022/09/06 04:25:40;;;;;;;13.02;8.05;;;;;;;;;;5054402;28;20059;-41
2022/09/06 04:28:05;;;;;;;13.88;8.13;;;;;;;;;;5054397;28;20472;-41
2022/09/06 04:30:31;;;;;;;10.95;8.07;;;;;;;;;;5054215;28;20029;-41
2022/09/06 04:32:56;;;;;;;12.60;8.63;;;;;;;;;;5054198;28;20071;-42
2022/09/06 04:35:22;;;;;;;9.75;7.95;;;;;;;;;;5054140;28;20025;-42
2022/09/06 04:37:47;;;;;;;10.25;7.80;;;;;;;;;;5054177;28;20100;-43
2022/09/06 04:40:13;;;;;;;9.60;7.70;;;;;;;;;;5054341;28;20523;-42
2022/09/06 04:42:38;;;;;;;10.45;7.25;;;;;;;;;;5053974;28;20064;-43
2022/09/06 04:45:04;;;;;;;7.55;6.85;;;;;;;;;;5054041;28;20032;-42
2022/09/06 04:47:30;;;;;;;11.20;7.38;;;;;;;;;;5053954;28;20358;-40
2022/09/06 04:49:56;;;;;;;8.48;6.90;;;;;;;;;;5053845;28;20074;-43
2022/09/06 04:52:22;;;;;;;8.85;6.43;;;;;;;;;;5053812;28;20028;-44
2022/09/06 04:54:47;;;;;;;7.45;6.32;;;;;;;;;;5053798;28;20052;-43
2022/09/06 04:57:13;;;;;;;9.63;6.13;;;;;;;;;;5053596;28;20021;-43
2022/09/06 04:59:38;;;;;;;6.80;6.00;;;;;;;;;;5052727;28;20025;-43
2022/09/06 05:02:04;;;;;;;7.32;6.22;;;;;;;;;;5052778;28;20372;-43
2022/09/06 05:04:29;;;;;;;6.85;6.15;;;;;;;;;;5053508;28;20028;-42
2022/09/06 05:07:06;;;;;;;7.93;5.70;;;;;;;;;;5053540;28;20027;-42
2022/09/06 05:09:32;;;;;;;9.48;5.20;;;;;;;;;;5053464;28;20043;-42
2022/09/06 05:11:58;;;;;;;13.02;5.72;;;;;;;;;;5053424;28;20025;-42
2022/09/06 05:14:24;;;;;;;10.40;5.85;;;;;;;;;;5053416;28;20017;-42
2022/09/06 05:16:50;;;;;;;7.05;5.78;;;;;;;;;;5051936;28;20021;-42
2022/09/06 05:19:16;;;;;;;8.38;5.65;;;;;;;;;;5052755;28;20032;-41
2022/09/06 05:21:41;;;;;;;6.93;5.70;;;;;;;;;;5053581;28;20028;-42
2022/09/06 05:24:07;;;;;;;8.40;5.68;;;;;;;;;;5052624;28;20025;-42
2022/09/06 05:26:32;;;;;;;5.88;5.38;;;;;;;;;;5052704;28;20040;-44
2022/09/06 05:28:58;;;;;;;6.25;5.30;;;;;;;;;;5052958;28;20349;-42
2022/09/06 05:31:28;;;;;;;7.82;5.15;;;;;;;;;;5051507;28;20601;-42
2022/09/06 05:33:55;;;;;;;8.05;5.80;;;;;;;;;;5051745;28;20477;-43
2022/09/06 05:36:22;;;;;;;20.05;5.35;;;;;;;;;;5052944;28;20029;-43
2022/09/06 05:38:49;;;;;;;13.95;5.50;;;;;;;;;;5052940;28;20029;-42
2022/09/06 05:41:15;;;;;;;8.15;5.05;;;;;;;;;;5052818;28;20086;-42
2022/09/06 05:43:40;;;;;;;11.60;5.68;;;;;;;;;;5052474;28;20048;-41
2022/09/06 05:46:06;;;;;;;5.80;5.18;;;;;;;;;;5051773;28;20033;-41
2022/09/06 05:48:31;;;;;;;5.82;5.32;;;;;;;;;;5051941;28;20048;-41
2022/09/06 05:51:02;;;;;;;7.50;5.60;;;;;;;;;;5052495;28;20423;-43
2022/09/06 05:53:36;;;;;;;10.45;5.40;;;;;;;;;;5052584;28;20388;-43
2022/09/06 05:56:02;;;;;;;6.95;5.28;;;;;;;;;;5051359;28;20049;-43
2022/09/06 05:58:28;;;;;;;6.18;5.20;;;;;;;;;;5052659;28;20028;-44
2022/09/06 06:01:12;;;;;;;6.47;4.78;;;;;;;;;;5052641;28;20531;-42
2022/09/06 06:03:38;;;;;;;6.88;5.03;;;;;;;;;;5052821;28;20036;-42
2022/09/06 06:06:03;;;;;;;5.93;5.32;;;;;;;;;;5052373;28;20037;-42
2022/09/06 06:08:29;;;;;;;5.47;4.97;;;;;;;;;;5051989;28;20037;-42
2022/09/06 06:10:58;;;;;;;10.38;5.30;;;;;;;;;;5052576;28;20021;-43
2022/09/06 06:13:25;;;;;;;7.68;5.10;;;;;;;;;;5052905;28;20102;-43
2022/09/06 06:15:51;;;;;;;9.32;4.90;;;;;;;;;;5052355;28;20422;-44
2022/09/06 06:18:16;;;;;;;5.60;4.78;;;;;;;;;;5052453;28;20108;-43
2022/09/06 06:20:41;;;;;;;5.00;4.50;;;;;;;;;;5052480;28;20143;-41
2022/09/06 06:23:07;;;;;;;8.07;4.18;;;;;;;;;;5052536;28;20511;-42
2022/09/06 06:25:33;;;;;;;4.60;4.05;;;;;;;;;;5052466;28;20465;-42
2022/09/06 06:27:58;;;;;;;4.85;4.10;;;;;;;;;;5052433;28;20530;-42
2022/09/06 06:30:24;;;;;;;6.03;4.25;;;;;;;;;;5052593;28;20108;-44
2022/09/06 06:32:49;;;;;;;4.40;4.00;;;;;;;;;;5052089;28;20025;-42
2022/09/06 06:35:15;;;;;;;11.18;7.40;;;;;;;;;;5050765;28;20306;-42
2022/09/06 06:37:41;;;;;;;5.18;3.70;;;;;;;;;;5052236;28;20063;-42
2022/09/06 06:40:07;;;;;;;5.32;4.22;;;;;;;;;;5046295;28;20080;-47
2022/09/06 06:42:33;;;;;;;4.43;3.45;;;;;;;;;;5051888;28;20056;-41
2022/09/06 06:44:59;;;;;;;5.95;3.88;;;;;;;;;;5052006;28;20068;-44
2022/09/06 06:47:24;;;;;;;4.90;3.40;;;;;;;;;;5052139;28;20025;-41
2022/09/06 06:49:49;;;;;;;5.97;3.67;;;;;;;;;;5052289;28;20036;-43
2022/09/06 06:52:15;;;;;;;3.97;2.83;;;;;;;;;;5052309;28;20033;-42
2022/09/06 06:54:40;;;;;;;5.60;3.15;;;;;;;;;;5052041;28;20028;-44
2022/09/06 06:57:08;;;;;;;5.10;3.05;;;;;;;;;;5052003;28;20469;-43
2022/09/06 06:59:34;;;;;;;11.60;3.13;;;;;;;;;;5052177;28;20021;-44
2022/09/06 07:01:59;;;;;;;3.13;2.65;;;;;;;;;;5052134;28;20043;-48
2022/09/06 07:04:25;;;;;;;3.92;2.90;;;;;;;;;;5052118;28;20377;-48
2022/09/06 07:06:53;;;;;;;4.72;2.70;;;;;;;;;;5051861;28;20021;-47
2022/09/06 07:09:20;;;;;;;6.60;2.28;;;;;;;;;;5051824;28;20024;-44
2022/09/06 07:11:47;;;;;;;4.50;2.70;;;;;;;;;;5051778;28;20471;-46
2022/09/06 07:14:13;;;;;;;4.97;2.72;;;;;;;;;;5051665;28;20047;-43
2022/09/06 07:16:38;;;;;;;4.90;2.20;;;;;;;;;;5051760;28;20029;-45
2022/09/06 07:19:04;;;;;;;3.78;2.53;;;;;;;;;;5051394;28;20463;-44
2022/09/06 07:21:29;;;;;;;3.50;2.70;;;;;;;;;;5052481;28;20606;-43
2022/09/06 07:23:55;;;;;;;4.78;2.63;;;;;;;;;;5052578;28;20036;-43
2022/09/06 07:26:23;;;;;;;10.52;2.60;;;;;;;;;;5052614;28;20031;-43
2022/09/06 07:28:53;;;;;;;5.85;2.50;;;;;;;;;;5052712;28;20075;-46
2022/09/06 07:31:18;;;;;;;5.70;2.42;;;;;;;;;;5052711;28;20025;-44
2022/09/06 07:33:43;;;;;;;3.78;2.08;;;;;;;;;;5052585;28;20098;-44
2022/09/06 07:36:10;;;;;;;6.25;2.55;;;;;;;;;;5052104;28;20021;-45
2022/09/06 07:38:36;;;;;;;2.63;2.00;;;;;;;;;;5053616;28;20424;-44
2022/09/06 07:41:04;;;;;;;4.28;2.20;;;;;;;;;;5053311;28;20035;-46
2022/09/06 07:43:30;;;;;;;4.22;2.30;;;;;;;;;;5053500;28;20060;-45
2022/09/06 07:46:11;;;;;;;3.80;1.95;;;;;;;;;;5053357;28;20124;-47
2022/09/06 07:48:39;;;;;;;5.13;2.35;;;;;;;;;;5053552;28;20104;-46
2022/09/06 07:51:11;;;;;;;4.03;2.08;;;;;;;;;;5053143;28;20036;-44
2022/09/06 07:53:38;;;;;;;2.38;1.77;;;;;;;;;;5053396;28;20424;-48
2022/09/06 07:56:05;;;;;;;6.32;2.00;;;;;;;;;;5053051;28;20055;-45
2022/09/06 07:58:32;;;;;;;4.90;2.30;;;;;;;;;;5053307;28;20384;-47
2022/09/06 08:01:39;;;;;;;2.47;2.00;;;;;;;;;;5053042;28;20017;-46
2022/09/06 08:04:07;;;;;;;4.50;2.40;;;;;;;;;;5030652;28;20030;-43
2022/09/06 08:06:38;;;;;;;7.15;2.20;;;;;;;;;;5030398;28;20103;-46
2022/09/06 08:09:06;;;;;;;3.47;2.13;;;;;;;;;;5041954;28;20033;-45
2022/09/06 08:11:32;;;;;;;;;;;;;;;;;;5052825;28;20044;-43
2022/09/06 08:13:59;;;;;;;3.47;1.95;;;;;;;;;;5052963;28;19913;-44
2022/09/06 08:16:29;;;;;;;3.85;1.90;;;;;;;;;;5052972;28;20032;-43
2022/09/06 08:18:57;;;;;;;2.55;2.00;;;;;;;;;;5052706;28;20388;-43
2022/09/06 08:21:25;;;;;;;2.85;1.92;;;;;;;;;;5052186;28;20036;-46
2022/09/06 08:24:11;;;;;;;3.30;1.90;;;;;;;;;;5052303;28;20032;-45
2022/09/06 08:26:39;;;;;;;4.60;1.98;;;;;;;;;;5052483;28;20061;-43
2022/09/06 08:29:07;;;;;;;11.15;2.05;;;;;;;;;;5052561;28;20083;-43
2022/09/06 08:31:34;;;;;;;2.10;2.00;;;;;;;;;;5052030;28;20040;-45
2022/09/06 08:34:00;;;;;;;2.50;2.30;;;;;;;;;;5052648;28;20254;-45
2022/09/06 08:36:28;;;;;;;3.78;2.30;;;;;;;;;;5052498;28;20032;-46
2022/09/06 08:38:55;;;;;;;8.63;2.30;;;;;;;;;;5052042;28;20021;-45
2022/09/06 08:41:29;;;;;;;3.78;2.20;;;;;;;;;;5052410;28;20028;-43
2022/09/06 08:44:00;;;;;;;4.22;2.38;;;;;;;;;;5052363;28;20086;-47
2022/09/06 08:46:33;;;;;;;3.78;2.25;;;;;;;;;;5052574;28;20357;-45
2022/09/06 08:48:58;;;;;;;3.80;2.40;;;;;;;;;;5052224;28;20025;-45
2022/09/06 08:51:30;;;;;;;3.42;2.40;;;;;;;;;;5052597;28;20017;-45
2022/09/06 08:54:03;;;;;;;5.20;2.10;;;;;;;;;;5051879;28;20037;-45
2022/09/06 08:56:40;;;;;;;4.75;2.42;;;;;;;;;;5051332;28;20067;-46
2022/09/06 08:59:12;;;;;;;4.70;2.03;;;;;;;;;;5050295;28;20036;-45
2022/09/06 09:02:07;;;;;;;5.60;2.65;;;;;;;;;;5051823;28;20441;-44
2022/09/06 09:04:35;;;;;;;4.30;2.30;;;;;;;;;;5051343;28;20067;-44
2022/09/06 09:07:24;;;;;;;6.85;3.00;;;;;;;;;;5052159;28;20112;-46
2022/09/06 09:09:51;;;;;;;4.20;2.38;;;;;;;;;;5051619;28;20447;-43
2022/09/06 09:12:21;;;;;;;6.70;2.55;;;;;;;;;;5051097;28;20029;-44
2022/09/06 09:14:52;;;;;;;4.72;2.50;;;;;;;;;;5051073;28;20037;-45
2022/09/06 09:17:24;;;;;;;4.57;2.30;;;;;;;;;;5051901;28;20082;-44
2022/09/06 09:19:49;;;;;;;3.90;2.35;;;;;;;;;;5052015;28;20099;-43
2022/09/06 09:22:18;;;;;;;3.00;2.30;;;;;;;;;;5049287;28;20571;-43
2022/09/06 09:24:46;;;;;;;5.70;2.30;;;;;;;;;;5050341;28;20385;-43
2022/09/06 09:27:15;;;;;;;4.13;2.42;;;;;;;;;;5050399;28;20040;-45
2022/09/06 09:29:52;;;;;;;3.05;2.15;;;;;;;;;;5050202;28;20057;-44
2022/09/06 09:32:40;;;;;;;2.38;2.20;;;;;;;;;;5051096;28;20481;-45
2022/09/06 09:35:18;;;;;;;4.53;2.28;;;;;;;;;;5051634;28;20055;-47
2022/09/06 09:37:44;;;;;;;4.20;2.30;;;;;;;;;;5051316;28;20033;-43
2022/09/06 09:40:17;;;;;;;2.58;2.38;;;;;;;;;;5051370;28;20031;-48
2022/09/06 09:42:43;;;;;;;2.60;2.40;;;;;;;;;;5050409;28;20398;-45
2022/09/06 09:45:23;;;;;;;3.95;2.47;;;;;;;;;;5049124;28;20041;-46
2022/09/06 09:47:49;;;;;;;3.15;2.47;;;;;;;;;;5050999;28;20028;-45
2022/09/06 09:50:33;;;;;;;3.28;2.30;;;;;;;;;;5050703;28;20142;-43
2022/09/06 09:53:13;;;;;;;6.80;2.13;;;;;;;;;;5049919;28;20035;-46
2022/09/06 09:55:39;;;;;;;3.10;2.25;;;;;;;;;;5046966;28;20090;-43
2022/09/06 09:58:07;;;;;;;4.55;2.30;;;;;;;;;;5049999;28;20025;-45
2022/09/06 10:00:38;;;;;;;2.50;2.30;;;;;;;;;;5049896;28;20029;-45
2022/09/06 10:03:30;;;;;;;2.33;2.13;;;;;;;;;;5048085;28;20115;-44
2022/09/06 10:05:59;;;;;;;2.20;2.00;;;;;;;;;;5048776;28;20045;-45
2022/09/06 10:08:26;;;;;;;1.98;1.85;;;;;;;;;;5050978;28;20037;-44
2022/09/06 10:10:51;;;;;;;2.45;2.25;;;;;;;;;;5049432;28;20094;-45
2022/09/06 10:13:28;;;;;;;2.03;1.90;;;;;;;;;;5049806;28;20021;-44
2022/09/06 10:15:57;;;;;;;2.28;2.03;;;;;;;;;;5049491;28;20029;-43
2022/09/06 10:18:43;;;;;;;3.17;2.25;;;;;;;;;;5047066;28;20029;-43
2022/09/06 10:21:21;;;;;;;3.08;2.58;;;;;;;;;;5047928;28;20060;-44
2022/09/06 10:24:07;;;;;;;2.22;1.95;;;;;;;;;;5040677;28;20065;-44
2022/09/06 10:26:54;;;;;;;3.00;2.22;;;;;;;;;;5049356;28;20036;-46
2022/09/06 10:29:39;;;;;;;3.17;2.45;;;;;;;;;;5047788;28;20056;-46
2022/09/06 10:32:25;;;;;;;2.92;2.40;;;;;;;;;;5049401;28;20044;-44
2022/09/06 10:35:09;;;;;;;4.55;2.70;;;;;;;;;;5038335;28;20467;-46
2022/09/06 10:37:47;;;;;;;3.75;2.10;;;;;;;;;;5050428;28;20036;-44
2022/09/06 10:40:41;;;;;;;5.15;2.40;;;;;;;;;;5049421;28;20040;-46
2022/09/06 10:43:15;;;;;;;5.00;2.38;;;;;;;;;;5048687;28;20099;-47
2022/09/06 10:45:52;;;;;;;3.20;2.50;;;;;;;;;;5050154;28;20037;-47
2022/09/06 10:48:25;;;;;;;2.60;2.40;;;;;;;;;;5049372;28;20432;-45
2022/09/06 10:51:06;;;;;;;7.25;2.80;;;;;;;;;;5047771;28;20029;-45
2022/09/06 10:54:05;;;;;;;2.60;2.40;;;;;;;;;;5050115;28;20037;-46
2022/09/06 10:56:39;;;;;;;3.65;2.92;;;;;;;;;;5041079;28;20091;-45
2022/09/06 10:59:25;;;;;;;5.15;2.45;;;;;;;;;;5054566;28;20032;-44
2022/09/06 11:01:56;;;;;;;3.42;2.58;;;;;;;;;;5054660;28;20032;-44
2022/09/06 11:04:34;;;;;;;2.95;2.63;;;;;;;;;;5054038;28;20035;-46
2022/09/06 11:07:04;;;;;;;3.13;2.30;;;;;;;;;;5054488;28;20025;-45
2022/09/06 11:09:42;;;;;;;7.78;3.47;;;;;;;;;;5054491;28;20025;-45
2022/09/06 11:12:11;;;;;;;8.10;2.30;;;;;;;;;;5054155;28;20037;-45
2022/09/06 11:14:38;;;;;;;14.63;4.10;;;;;;;;;;5054319;28;20029;-45
2022/09/06 11:17:14;;;;;;;9.07;3.88;;;;;;;;;;5054242;28;20040;-46
2022/09/06 11:19:43;;;;;;;15.32;3.80;;;;;;;;;;5054411;28;20032;-43
2022/09/06 11:22:23;;;;;;;2.50;2.30;;;;;;;;;;5054259;28;20052;-44
2022/09/06 11:24:57;;;;;;;2.83;2.45;;;;;;;;;;5054173;28;20029;-45
2022/09/06 11:27:28;;;;;;;5.60;2.42;;;;;;;;;;5053819;28;20465;-47
2022/09/06 11:29:55;;;;;;;4.05;2.30;;;;;;;;;;5053410;28;20029;-46
2022/09/06 11:32:31;;;;;;;5.15;2.38;;;;;;;;;;5053854;28;20032;-43
2022/09/06 11:35:00;;;;;;;3.55;2.47;;;;;;;;;;5054004;28;20036;-44
2022/09/06 11:37:32;;;;;;;3.78;2.58;;;;;;;;;;5053921;28;20036;-42
2022/09/06 11:40:05;;;;;;;5.18;2.53;;;;;;;;;;5053796;28;20029;-44
2022/09/06 11:42:39;;;;;;;18.27;3.42;;;;;;;;;;5053605;28;20029;-43
2022/09/06 11:45:11;;;;;;;4.45;2.50;;;;;;;;;;5053363;28;20040;-45
2022/09/06 11:47:45;;;;;;;2.45;2.28;;;;;;;;;;5053634;28;20029;-43
2022/09/06 11:50:20;;;;;;;8.10;2.67;;;;;;;;;;5053693;28;20055;-48
2022/09/06 11:52:54;;;;;;;6.15;2.83;;;;;;;;;;5052955;28;20033;-46
2022/09/06 11:55:30;;;;;;;4.90;2.50;;;;;;;;;;5053062;28;20063;-50
2022/09/06 11:57:58;;;;;;;2.30;2.10;;;;;;;;;;5053703;28;20037;-46
2022/09/06 12:00:24;;;;;;;3.55;2.60;;;;;;;;;;5053496;28;20369;-45
2022/09/06 12:02:50;;;;;;;2.60;2.25;;;;;;;;;;5053569;28;20400;-44
2022/09/06 12:05:28;;;;;;;4.75;2.17;;;;;;;;;;5053312;28;20088;-45
2022/09/06 12:08:12;;;;;;;5.32;2.00;;;;;;;;;;5050369;28;20425;-43
2022/09/06 12:10:38;;;;;;;5.80;2.67;;;;;;;;;;5053246;28;20044;-45
2022/09/06 12:13:33;;;;;;;9.38;2.50;;;;;;;;;;5053045;28;20029;-44
2022/09/06 12:16:00;;;;;;;6.80;3.03;;;;;;;;;;5053025;28;20029;-43
2022/09/06 12:18:56;;;;;;;5.18;2.60;;;;;;;;;;5052452;28;20025;-43
2022/09/06 12:21:45;;;;;;;4.28;2.17;;;;;;;;;;5043053;28;20446;-45
2022/09/06 12:24:35;;;;;;;2.40;2.20;;;;;;;;;;5053253;28;20025;-43
2022/09/06 12:27:25;;;;;;;2.58;2.20;;;;;;;;;;5053032;28;20604;-41
2022/09/06 12:29:57;;;;;;;3.47;2.50;;;;;;;;;;5052731;28;20029;-43
2022/09/06 12:32:30;;;;;;;3.38;2.35;;;;;;;;;;5052464;28;20025;-46
2022/09/06 12:34:57;;;;;;;3.28;2.38;;;;;;;;;;5053025;28;20033;-47
2022/09/06 12:37:48;;;;;;;8.30;2.50;;;;;;;;;;5052385;28;20021;-44
2022/09/06 12:40:14;;;;;;;6.32;2.60;;;;;;;;;;5052980;28;20366;-46
2022/09/06 12:42:41;;;;;;;3.88;2.40;;;;;;;;;;5052643;28;20035;-45
2022/09/06 12:45:07;;;;;;;3.47;2.40;;;;;;;;;;5052454;28;20148;-45
2022/09/06 12:47:36;;;;;;;5.85;3.67;;;;;;;;;;5052655;28;20308;-47
2022/09/06 12:50:10;;;;;;;6.07;2.40;;;;;;;;;;5052183;28;20032;-44
2022/09/06 12:52:49;;;;;;;2.53;2.33;;;;;;;;;;5052368;28;20487;-44
2022/09/06 12:55:36;;;;;;;5.05;2.53;;;;;;;;;;5052043;28;20633;-45
2022/09/06 12:58:04;;;;;;;3.45;2.65;;;;;;;;;;5051964;28;20036;-43
2022/09/06 13:00:51;;;;;;;8.52;3.25;;;;;;;;;;5052163;28;20020;-43
2022/09/06 13:03:31;;;;;;;5.15;2.80;;;;;;;;;;5052388;28;20691;-43
2022/09/06 13:06:03;;;;;;;9.02;2.50;;;;;;;;;;5052073;28;20048;-42
2022/09/06 13:08:36;;;;;;;2.63;2.42;;;;;;;;;;5052250;28;20033;-45
2022/09/06 13:11:07;;;;;;;8.93;2.13;;;;;;;;;;5051951;28;20037;-45
2022/09/06 13:13:32;;;;;;;5.15;2.40;;;;;;;;;;5051995;28;20021;-45
2022/09/06 13:15:58;;;;;;;5.88;2.45;;;;;;;;;;5052121;28;20358;-44
2022/09/06 13:18:38;;;;;;;6.57;2.38;;;;;;;;;;5051377;28;20028;-42
2022/09/06 13:21:06;;;;;;;3.85;2.30;;;;;;;;;;5051792;28;20226;-43
2022/09/06 13:23:47;;;;;;;4.25;2.47;;;;;;;;;;5052010;28;20173;-47
2022/09/06 13:26:13;;;;;;;8.68;2.92;;;;;;;;;;5051594;28;20037;-42
2022/09/06 13:28:39;;;;;;;5.35;2.53;;;;;;;;;;5051570;28;20025;-44
2022/09/06 13:31:07;;;;;;;2.45;2.25;;;;;;;;;;5051554;28;20036;-45
2022/09/06 13:33:33;;;;;;;5.65;2.20;;;;;;;;;;5051452;28;20044;-45
2022/09/06 13:36:16;;;;;;;15.55;3.58;;;;;;;;;;5051396;28;20036;-45
2022/09/06 13:38:44;;;;;;;4.70;2.22;;;;;;;;;;5051467;28;20040;-46
2022/09/06 13:41:25;;;;;;;2.67;2.30;;;;;;;;;;5051667;28;20040;-47
2022/09/06 13:43:57;;;;;;;4.30;2.40;;;;;;;;;;5051265;28;20032;-45
2022/09/06 13:46:22;;;;;;;2.47;2.28;;;;;;;;;;5051161;28;20025;-44
2022/09/06 13:48:48;;;;;;;3.75;2.30;;;;;;;;;;5051277;28;20035;-45
2022/09/06 13:51:13;;;;;;;4.20;2.53;;;;;;;;;;5051337;28;20036;-44
2022/09/06 13:53:39;;;;;;;5.85;3.05;;;;;;;;;;5051186;28;20032;-42
2022/09/06 13:56:07;;;;;;;6.05;2.78;;;;;;;;;;5051089;28;20504;-44
2022/09/06 13:58:35;;;;;;;3.33;2.58;;;;;;;;;;5051360;28;20056;-42
2022/09/06 14:01:00;;;;;;;4.95;2.78;;;;;;;;;;5051070;28;20033;-43
2022/09/06 14:03:30;;;;;;;4.07;2.75;;;;;;;;;;5049775;28;20029;-45
2022/09/06 14:05:56;;;;;;;4.07;2.78;;;;;;;;;;5050907;28;20083;-45
2022/09/06 14:08:23;;;;;;;3.35;2.72;;;;;;;;;;5051248;28;20032;-44
2022/09/06 14:10:49;;;;;;;3.20;2.90;;;;;;;;;;5050855;28;20017;-44
2022/09/06 14:13:16;;;;;;;2.70;2.50;;;;;;;;;;5050895;28;20029;-44
2022/09/06 14:15:41;;;;;;;2.58;2.38;;;;;;;;;;5051047;28;20023;-44
2022/09/06 14:18:07;;;;;;;3.30;2.40;;;;;;;;;;5049895;28;20464;-47
2022/09/06 14:20:33;;;;;;;2.58;2.38;;;;;;;;;;5050685;28;20029;-44
2022/09/06 14:22:59;;;;;;;2.50;2.30;;;;;;;;;;5050763;28;20095;-45
2022/09/06 14:25:24;;;;;;;3.38;2.30;;;;;;;;;;5049113;28;20120;-48
2022/09/06 14:27:50;;;;;;;5.80;2.50;;;;;;;;;;5050732;28;20036;-42
2022/09/06 14:30:16;;;;;;;3.28;2.50;;;;;;;;;;5049779;28;20366;-47
2022/09/06 14:32:41;;;;;;;2.67;2.45;;;;;;;;;;5050894;28;20044;-47
2022/09/06 14:35:07;;;;;;;3.33;2.53;;;;;;;;;;5050746;28;20048;-47
2022/09/06 14:37:33;;;;;;;3.50;2.80;;;;;;;;;;5050773;28;20120;-44
2022/09/06 14:39:59;;;;;;;12.95;3.65;;;;;;;;;;5050951;28;20160;-44
2022/09/06 14:42:25;;;;;;;10.60;3.00;;;;;;;;;;5050651;28;20475;-45
2022/09/06 14:44:50;;;;;;;6.65;2.50;;;;;;;;;;5049092;28;20036;-44
2022/09/06 14:47:16;;;;;;;4.30;2.90;;;;;;;;;;5050884;28;20116;-44
2022/09/06 14:49:41;;;;;;;7.57;2.63;;;;;;;;;;5050515;28;20124;-46
2022/09/06 14:52:07;;;;;;;10.45;3.63;;;;;;;;;;5050881;28;20071;-43
2022/09/06 14:54:33;;;;;;;2.60;2.38;;;;;;;;;;5050512;28;20055;-46
2022/09/06 14:56:59;;;;;;;3.08;2.70;;;;;;;;;;5050457;28;20095;-42
2022/09/06 14:59:25;;;;;;;2.90;2.65;;;;;;;;;;5050283;28;20028;-47
2022/09/06 15:01:51;;;;;;;4.40;2.50;;;;;;;;;;5050475;28;20101;-46